createdAt,value
2019-03-16T00:01:18.339Z,66.50
2019-03-16T00:03:45.132Z,66.30
2019-03-16T00:06:11.742Z,67.00
2019-03-16T00:08:38.337Z,68.10
2019-03-16T00:11:05.241Z,67.30
2019-03-16T00:13:31.865Z,68.00
2019-03-16T00:15:58.488Z,67.60
2019-03-16T00:18:25.141Z,68.50
2019-03-16T00:20:51.838Z,68.60
2019-03-16T00:23:18.548Z,67.50
2019-03-16T00:25:45.401Z,68.00
2019-03-16T00:28:12.029Z,67.70
2019-03-16T00:30:38.687Z,68.40
2019-03-16T00:33:05.533Z,68.00
2019-03-16T00:35:32.246Z,68.80
2019-03-16T00:37:58.962Z,68.90
2019-03-16T00:40:25.583Z,69.50
2019-03-16T00:42:52.191Z,69.20
2019-03-16T00:45:18.808Z,70.70
2019-03-16T00:47:45.429Z,69.50
2019-03-16T00:50:12.394Z,70.50
2019-03-16T00:52:39.143Z,70.40
2019-03-16T00:55:05.973Z,70.80
2019-03-16T00:57:32.697Z,70.10
2019-03-16T00:59:59.555Z,70.90
2019-03-16T01:02:27.556Z,71.40
2019-03-16T01:04:54.415Z,72.60
2019-03-16T01:07:21.033Z,72.50
2019-03-16T01:09:47.735Z,72.20
2019-03-16T01:12:14.348Z,72.70
2019-03-16T01:14:40.969Z,72.50
2019-03-16T01:17:07.780Z,72.60
2019-03-16T01:19:34.440Z,73.10
2019-03-16T01:22:01.036Z,73.60
2019-03-16T01:24:27.648Z,74.00
2019-03-16T01:26:54.248Z,74.50
2019-03-16T01:29:21.344Z,74.80
2019-03-16T01:31:48.041Z,75.40
2019-03-16T01:34:15.001Z,75.70
2019-03-16T01:36:41.793Z,76.00
2019-03-16T01:39:08.487Z,76.40
2019-03-16T01:41:35.109Z,77.20
2019-03-16T01:44:01.739Z,77.00
2019-03-16T01:46:28.574Z,76.70
2019-03-16T01:48:55.257Z,77.30
2019-03-16T01:51:21.847Z,78.10
2019-03-16T01:53:48.480Z,77.40
2019-03-16T01:56:15.104Z,78.30
2019-03-16T01:58:41.839Z,78.20
2019-03-16T02:01:08.555Z,79.50
2019-03-16T02:03:35.455Z,77.50
2019-03-16T02:06:02.073Z,77.60
2019-03-16T02:08:28.703Z,77.00
2019-03-16T02:10:55.299Z,78.20
2019-03-16T02:13:21.913Z,77.60
2019-03-16T02:15:48.607Z,78.30
2019-03-16T02:18:15.221Z,78.00
2019-03-16T02:20:41.837Z,78.70
2019-03-16T02:23:08.565Z,78.50
2019-03-16T02:25:35.152Z,77.60
2019-03-16T02:28:01.784Z,78.20
2019-03-16T02:30:29.088Z,77.20
2019-03-16T02:33:11.755Z,77.10
2019-03-16T02:35:24.559Z,77.90
2019-03-16T02:37:51.529Z,78.40
2019-03-16T02:40:18.515Z,77.70
2019-03-16T02:42:45.354Z,77.50
2019-03-16T02:45:11.999Z,77.80
2019-03-16T02:47:38.683Z,77.10
2019-03-16T02:50:05.713Z,77.70
2019-03-16T02:52:32.535Z,77.90
2019-03-16T02:54:59.126Z,78.30
2019-03-16T02:57:25.835Z,78.00
2019-03-16T02:59:52.496Z,78.50
2019-03-16T03:02:19.221Z,78.20
2019-03-16T03:04:46.602Z,78.30
2019-03-16T03:07:13.625Z,78.40
2019-03-16T03:09:40.278Z,78.30
2019-03-16T03:12:06.901Z,78.60
2019-03-16T03:14:33.539Z,79.40
2019-03-16T03:17:00.128Z,80.30
2019-03-16T03:19:26.744Z,80.70
2019-03-16T03:21:53.417Z,80.80
2019-03-16T03:24:20.386Z,80.30
2019-03-16T03:26:47.086Z,81.10
2019-03-16T03:29:13.705Z,80.60
2019-03-16T03:31:40.341Z,80.60
2019-03-16T03:34:07.037Z,81.30
2019-03-16T03:36:33.650Z,81.20
2019-03-16T03:39:00.460Z,81.50
2019-03-16T03:41:27.234Z,81.10
2019-03-16T03:43:54.238Z,80.50
2019-03-16T03:46:20.877Z,80.70
2019-03-16T03:48:47.521Z,82.20
2019-03-16T03:51:14.177Z,81.40
2019-03-16T03:53:41.456Z,81.80
2019-03-16T03:56:08.444Z,81.90
2019-03-16T03:58:35.095Z,81.30
2019-03-16T04:01:02.480Z,82.00
2019-03-16T04:03:29.089Z,82.10
2019-03-16T04:05:56.989Z,82.90
2019-03-16T04:08:23.681Z,82.70
2019-03-16T04:10:50.289Z,82.60
2019-03-16T04:13:16.913Z,82.10
2019-03-16T04:15:43.529Z,81.90
2019-03-16T04:18:10.112Z,81.50
2019-03-16T04:20:36.745Z,81.90
2019-03-16T04:23:03.482Z,82.10
2019-03-16T04:25:32.192Z,83.10
2019-03-16T04:27:59.069Z,82.60
2019-03-16T04:30:25.760Z,83.40
2019-03-16T04:32:52.641Z,84.30
2019-03-16T04:35:19.301Z,83.90
2019-03-16T04:37:45.920Z,84.50
2019-03-16T04:40:12.549Z,83.50
2019-03-16T04:42:39.194Z,83.50
2019-03-16T04:45:06.585Z,83.40
2019-03-16T04:47:33.189Z,83.60
2019-03-16T04:49:59.824Z,84.00
2019-03-16T04:52:26.441Z,84.30
2019-03-16T04:54:53.049Z,84.30
2019-03-16T04:57:19.727Z,84.60
2019-03-16T04:59:46.456Z,85.00
2019-03-16T05:02:13.064Z,84.70
2019-03-16T05:04:42.603Z,85.00
2019-03-16T05:07:08.267Z,84.40
2019-03-16T05:09:35.261Z,85.40
2019-03-16T05:12:02.002Z,85.40
2019-03-16T05:14:28.623Z,85.60
2019-03-16T05:16:55.310Z,86.20
2019-03-16T05:19:22.228Z,86.30
2019-03-16T05:21:48.815Z,85.90
2019-03-16T05:24:15.552Z,85.10
2019-03-16T05:26:42.252Z,85.60
2019-03-16T05:29:08.844Z,85.10
2019-03-16T05:31:35.513Z,85.40
2019-03-16T05:34:02.297Z,85.50
2019-03-16T05:36:28.944Z,85.70
2019-03-16T05:38:55.538Z,85.20
2019-03-16T05:41:22.172Z,85.10
2019-03-16T05:43:48.780Z,85.40
2019-03-16T05:46:15.545Z,85.50
2019-03-16T05:48:42.215Z,85.30
2019-03-16T05:51:08.853Z,84.90
2019-03-16T05:53:35.464Z,85.50
2019-03-16T05:56:02.262Z,84.80
2019-03-16T05:58:28.851Z,85.10
2019-03-16T06:00:55.450Z,85.00
2019-03-16T06:03:22.353Z,84.60
2019-03-16T06:05:48.944Z,84.50
2019-03-16T06:08:15.603Z,84.70
2019-03-16T06:10:42.212Z,84.70
2019-03-16T06:13:09.070Z,84.00
2019-03-16T06:15:35.703Z,83.70
2019-03-16T06:18:02.357Z,83.10
2019-03-16T06:20:28.956Z,82.70
2019-03-16T06:22:55.589Z,82.20
2019-03-16T06:25:22.190Z,82.40
2019-03-16T06:27:48.830Z,81.90
2019-03-16T06:30:15.440Z,79.80
2019-03-16T06:32:42.105Z,78.30
2019-03-16T06:35:09.033Z,78.10
2019-03-16T06:37:35.660Z,78.60
2019-03-16T06:40:02.732Z,78.60
2019-03-16T06:42:29.510Z,78.30
2019-03-16T06:44:56.388Z,77.50
2019-03-16T06:47:23.268Z,77.60
2019-03-16T06:49:50.010Z,76.50
2019-03-16T06:52:16.636Z,76.50
2019-03-16T06:54:43.231Z,75.60
2019-03-16T06:57:09.815Z,75.60
2019-03-16T06:59:36.730Z,75.30
2019-03-16T07:02:03.368Z,74.80
2019-03-16T07:04:29.956Z,75.40
2019-03-16T07:06:56.580Z,74.30
2019-03-16T07:09:23.220Z,73.90
2019-03-16T07:11:49.833Z,72.70
2019-03-16T07:14:16.463Z,72.60
2019-03-16T07:16:43.092Z,73.00
2019-03-16T07:19:09.680Z,73.50
2019-03-16T07:21:36.272Z,72.10
2019-03-16T07:24:03.267Z,70.60
2019-03-16T07:26:29.935Z,70.90
2019-03-16T07:28:56.519Z,70.70
2019-03-16T07:31:23.447Z,70.30
2019-03-16T07:33:50.065Z,70.30
2019-03-16T07:36:16.677Z,70.20
2019-03-16T07:38:43.351Z,70.00
2019-03-16T07:41:09.963Z,69.40
2019-03-16T07:43:36.643Z,68.50
2019-03-16T07:46:03.326Z,67.30
2019-03-16T07:48:30.043Z,67.30
2019-03-16T07:50:56.662Z,67.50
2019-03-16T07:53:23.661Z,66.90
2019-03-16T07:55:50.300Z,65.60
2019-03-16T07:58:17.016Z,64.00
2019-03-16T08:00:43.690Z,63.90
2019-03-16T08:03:10.417Z,64.90
2019-03-16T08:05:37.023Z,65.70
2019-03-16T08:08:03.647Z,66.30
2019-03-16T08:10:30.245Z,65.50
2019-03-16T08:12:56.967Z,65.70
2019-03-16T08:15:23.600Z,66.60
2019-03-16T08:17:50.241Z,67.90
2019-03-16T08:20:16.842Z,66.80
2019-03-16T08:22:43.497Z,66.00
2019-03-16T08:25:10.325Z,66.00
2019-03-16T08:27:36.920Z,65.30
2019-03-16T08:30:04.070Z,66.10
2019-03-16T08:32:30.731Z,65.40
2019-03-16T08:35:00.277Z,64.30
2019-03-16T08:37:25.932Z,64.50
2019-03-16T08:39:52.582Z,65.00
2019-03-16T08:42:19.213Z,65.20
2019-03-16T08:44:45.840Z,65.20
2019-03-16T08:47:12.465Z,64.40
2019-03-16T08:49:39.343Z,64.20
2019-03-16T08:52:06.246Z,63.10
2019-03-16T08:54:32.828Z,61.90
2019-03-16T08:56:59.461Z,61.00
2019-03-16T08:59:26.094Z,60.40
2019-03-16T09:01:52.802Z,60.20
2019-03-16T09:04:19.396Z,59.50
2019-03-16T09:06:46.044Z,58.90
2019-03-16T09:09:12.960Z,58.30
2019-03-16T09:11:39.836Z,58.40
2019-03-16T09:14:06.427Z,58.10
2019-03-16T09:16:33.069Z,57.40
2019-03-16T09:18:59.748Z,58.80
2019-03-16T09:21:26.406Z,58.30
2019-03-16T09:23:53.113Z,57.70
2019-03-16T09:26:19.732Z,57.90
2019-03-16T09:28:46.355Z,58.10
2019-03-16T09:31:12.947Z,56.50
2019-03-16T09:33:39.893Z,56.50
2019-03-16T09:36:06.593Z,56.20
2019-03-16T09:38:33.186Z,55.90
2019-03-16T09:40:59.775Z,55.30
2019-03-16T09:43:26.497Z,54.70
2019-03-16T09:45:53.088Z,54.80
2019-03-16T09:48:19.713Z,55.00
2019-03-16T09:50:46.380Z,54.50
2019-03-16T09:53:13.278Z,53.90
2019-03-16T09:55:39.927Z,53.40
2019-03-16T09:58:06.560Z,53.20
2019-03-16T10:00:33.554Z,52.60
2019-03-16T10:03:00.145Z,52.00
2019-03-16T10:05:26.823Z,52.00
2019-03-16T10:07:53.461Z,53.40
2019-03-16T10:10:20.388Z,51.80
2019-03-16T10:12:47.093Z,53.00
2019-03-16T10:15:14.021Z,54.30
2019-03-16T10:17:40.708Z,50.50
2019-03-16T10:20:07.525Z,51.00
2019-03-16T10:22:34.146Z,49.30
2019-03-16T10:25:00.865Z,49.50
2019-03-16T10:27:27.486Z,50.40
2019-03-16T10:29:54.079Z,51.80
2019-03-16T10:32:20.676Z,52.20
2019-03-16T10:34:47.290Z,51.90
2019-03-16T10:37:17.195Z,51.00
2019-03-16T10:39:43.821Z,51.80
2019-03-16T10:42:10.513Z,50.10
2019-03-16T10:44:37.149Z,50.00
2019-03-16T10:47:03.802Z,50.00
2019-03-16T10:49:30.511Z,50.00
2019-03-16T10:51:57.131Z,50.80
2019-03-16T10:54:23.751Z,50.00
2019-03-16T10:56:50.439Z,51.30
2019-03-16T10:59:17.177Z,51.20
2019-03-16T11:01:43.852Z,50.40
2019-03-16T11:04:10.571Z,49.70
2019-03-16T11:06:37.400Z,49.50
2019-03-16T11:09:05.601Z,50.90
2019-03-16T11:11:32.465Z,52.00
2019-03-16T11:13:59.096Z,52.40
2019-03-16T11:16:25.789Z,52.90
2019-03-16T11:18:52.429Z,53.50
2019-03-16T11:21:19.065Z,52.90
2019-03-16T11:23:45.664Z,53.60
2019-03-16T11:26:12.285Z,54.10
2019-03-16T11:28:39.125Z,53.00
2019-03-16T11:31:06.847Z,51.90
2019-03-16T11:33:33.759Z,52.10
2019-03-16T11:36:00.456Z,56.20
2019-03-16T11:38:27.167Z,59.90
2019-03-16T11:40:54.000Z,57.70
2019-03-16T11:43:20.801Z,57.40
2019-03-16T11:45:47.959Z,56.60
2019-03-16T11:48:14.850Z,57.40
2019-03-16T11:50:42.101Z,57.70
2019-03-16T11:53:08.880Z,59.70
2019-03-16T11:55:35.584Z,57.80
2019-03-16T11:58:02.322Z,57.00
2019-03-16T12:00:29.044Z,56.90
2019-03-16T12:02:56.517Z,57.00
2019-03-16T12:05:23.189Z,59.30
2019-03-16T12:07:49.926Z,58.90
2019-03-16T12:10:16.572Z,60.70
2019-03-16T12:12:43.174Z,65.40
2019-03-16T12:15:09.942Z,66.10
2019-03-16T12:17:36.588Z,68.10
2019-03-16T12:20:04.262Z,75.00
2019-03-16T12:22:30.860Z,79.80
2019-03-16T12:24:57.721Z,80.30
2019-03-16T12:27:24.353Z,83.40
2019-03-16T12:29:51.240Z,86.70
2019-03-16T12:32:18.901Z,88.30
2019-03-16T12:34:45.516Z,92.90
2019-03-16T12:37:12.132Z,92.00
2019-03-16T12:39:38.824Z,93.60
2019-03-16T12:42:05.524Z,89.40
2019-03-16T12:44:32.312Z,89.30
2019-03-16T12:46:58.996Z,95.20
2019-03-16T12:49:25.732Z,99.90
2019-03-16T12:51:52.326Z,99.90
2019-03-16T12:54:19.024Z,99.90
2019-03-16T12:56:45.985Z,99.90
2019-03-16T12:59:12.724Z,99.90
2019-03-16T13:01:39.453Z,99.90
2019-03-16T13:04:06.650Z,99.90
2019-03-16T13:06:33.286Z,99.90
2019-03-16T13:09:00.784Z,99.90
2019-03-16T13:11:27.614Z,99.90
2019-03-16T13:13:54.337Z,99.90
2019-03-16T13:16:21.118Z,99.90
2019-03-16T13:18:47.872Z,99.90
2019-03-16T13:21:14.671Z,99.90
2019-03-16T13:23:41.341Z,99.90
2019-03-16T13:26:08.409Z,99.90
2019-03-16T13:28:35.825Z,99.90
2019-03-16T13:31:03.147Z,99.90
2019-03-16T13:33:29.917Z,99.90
2019-03-16T13:35:56.512Z,99.90
2019-03-16T13:38:23.375Z,99.90
2019-03-16T13:40:50.018Z,99.90
2019-03-16T13:43:16.718Z,99.90
2019-03-16T13:45:45.085Z,99.90
2019-03-16T13:48:11.972Z,99.90
2019-03-16T13:50:38.788Z,99.90
2019-03-16T13:53:05.836Z,99.90
2019-03-16T13:55:34.614Z,99.90
2019-03-16T13:58:01.605Z,99.90
2019-03-16T14:00:28.304Z,99.90
2019-03-16T14:02:56.140Z,99.90
2019-03-16T14:05:22.790Z,99.90
2019-03-16T14:07:50.509Z,99.90
2019-03-16T14:10:17.150Z,99.90
2019-03-16T14:12:43.755Z,99.90
2019-03-16T14:15:11.030Z,99.90
2019-03-16T14:17:38.250Z,99.90
2019-03-16T14:20:06.832Z,99.90
2019-03-16T14:22:33.506Z,99.90
2019-03-16T14:25:00.347Z,99.90
2019-03-16T14:27:28.079Z,99.90
2019-03-16T14:29:54.797Z,99.90
2019-03-16T14:32:21.445Z,99.90
2019-03-16T14:34:48.313Z,99.90
2019-03-16T14:37:17.452Z,99.90
2019-03-16T14:39:44.865Z,99.90
2019-03-16T14:42:12.082Z,99.90
2019-03-16T14:44:38.832Z,99.90
2019-03-16T14:47:06.007Z,99.90
2019-03-16T14:49:32.766Z,99.90
2019-03-16T14:51:59.557Z,99.90
2019-03-16T14:54:26.153Z,99.90
2019-03-16T14:56:52.748Z,99.90
2019-03-16T14:59:19.381Z,99.90
2019-03-16T15:01:45.988Z,99.90
2019-03-16T15:04:12.585Z,99.90
2019-03-16T15:06:39.208Z,99.90
2019-03-16T15:09:06.199Z,99.90
2019-03-16T15:11:33.069Z,99.90
2019-03-16T15:13:59.734Z,99.90
2019-03-16T15:16:26.620Z,99.90
2019-03-16T15:18:53.242Z,99.90
2019-03-16T15:21:19.867Z,99.90
2019-03-16T15:23:46.516Z,99.90
2019-03-16T15:26:13.203Z,99.90
2019-03-16T15:28:39.833Z,99.90
2019-03-16T15:31:06.513Z,99.90
2019-03-16T15:33:33.206Z,99.90
2019-03-16T15:35:59.881Z,99.90
2019-03-16T15:38:26.556Z,99.90
2019-03-16T15:40:53.404Z,99.90
2019-03-16T15:43:20.410Z,99.90
2019-03-16T15:45:47.070Z,99.90
2019-03-16T15:48:14.049Z,99.90
2019-03-16T15:50:40.726Z,99.90
2019-03-16T15:53:07.423Z,99.90
2019-03-16T15:55:34.128Z,99.90
2019-03-16T15:58:08.023Z,99.90
2019-03-16T16:00:33.004Z,99.90
2019-03-16T16:02:59.947Z,99.90
2019-03-16T16:05:26.574Z,99.90
2019-03-16T16:07:53.228Z,99.90
2019-03-16T16:10:19.978Z,99.90
2019-03-16T16:12:46.668Z,99.90
2019-03-16T16:15:14.021Z,99.90
2019-03-16T16:17:40.816Z,99.90
2019-03-16T16:20:08.469Z,99.90
2019-03-16T16:22:35.112Z,99.90
2019-03-16T16:25:01.894Z,99.90
2019-03-16T16:27:28.669Z,99.90
2019-03-16T16:29:55.349Z,99.90
2019-03-16T16:32:21.960Z,99.90
2019-03-16T16:34:48.617Z,99.90
2019-03-16T16:37:15.303Z,99.90
2019-03-16T16:39:42.035Z,99.90
2019-03-16T16:42:08.728Z,99.90
2019-03-16T16:44:35.424Z,99.90
2019-03-16T16:47:02.049Z,99.90
2019-03-16T16:49:28.800Z,99.90
2019-03-16T16:51:55.436Z,99.90
2019-03-16T16:54:22.023Z,99.90
2019-03-16T16:56:48.711Z,99.90
2019-03-16T16:59:15.957Z,99.90
2019-03-16T17:01:42.761Z,99.90
2019-03-16T17:04:09.392Z,99.90
2019-03-16T17:06:36.084Z,99.90
2019-03-16T17:09:05.580Z,99.90
2019-03-16T17:11:32.184Z,99.90
2019-03-16T17:13:59.139Z,99.90
2019-03-16T17:16:25.757Z,99.90
2019-03-16T17:18:52.384Z,99.90
2019-03-16T17:21:19.054Z,99.90
2019-03-16T17:23:45.652Z,99.90
2019-03-16T17:26:12.250Z,99.90
2019-03-16T17:28:38.870Z,99.90
2019-03-16T17:31:09.040Z,99.90
2019-03-16T17:33:35.770Z,99.90
2019-03-16T17:36:02.440Z,99.90
2019-03-16T17:38:29.296Z,99.90
2019-03-16T17:40:55.945Z,99.90
2019-03-16T17:43:22.591Z,99.90
2019-03-16T17:45:49.261Z,99.90
2019-03-16T17:48:16.009Z,99.90
2019-03-16T17:50:42.653Z,99.90
2019-03-16T17:53:09.307Z,99.90
2019-03-16T17:55:36.028Z,99.90
2019-03-16T17:58:02.788Z,99.90
2019-03-16T18:00:29.745Z,99.90
2019-03-16T18:02:56.396Z,99.90
2019-03-16T18:05:23.008Z,99.90
2019-03-16T18:07:49.623Z,99.90
2019-03-16T18:10:16.234Z,99.90
2019-03-16T18:12:42.967Z,99.90
2019-03-16T18:15:11.708Z,99.90
2019-03-16T18:17:38.827Z,99.90
2019-03-16T18:20:06.810Z,99.90
2019-03-16T18:22:34.099Z,99.90
2019-03-16T18:25:00.971Z,99.90
2019-03-16T18:27:27.589Z,99.90
2019-03-16T18:29:54.207Z,99.90
2019-03-16T18:32:21.295Z,99.90
2019-03-16T18:34:47.999Z,99.90
2019-03-16T18:37:14.896Z,99.90
2019-03-16T18:39:41.604Z,99.90
2019-03-16T18:42:08.732Z,99.90
2019-03-16T18:44:37.357Z,99.90
2019-03-16T18:47:04.456Z,99.90
2019-03-16T18:49:31.717Z,99.90
2019-03-16T18:51:58.792Z,99.90
2019-03-16T18:54:25.595Z,99.90
2019-03-16T18:56:52.996Z,99.90
2019-03-16T18:59:20.049Z,99.90
2019-03-16T19:01:47.015Z,99.90
2019-03-16T19:04:14.155Z,99.90
2019-03-16T19:06:40.812Z,99.90
2019-03-16T19:09:08.121Z,99.90
2019-03-16T19:11:34.808Z,99.90
2019-03-16T19:14:01.671Z,99.90
2019-03-16T19:16:28.573Z,99.90
2019-03-16T19:18:55.551Z,99.90
2019-03-16T19:21:22.496Z,99.90
2019-03-16T19:23:49.313Z,99.90
2019-03-16T19:26:17.146Z,99.90
2019-03-16T19:28:44.039Z,99.90
2019-03-16T19:31:13.266Z,99.90
2019-03-16T19:33:40.475Z,99.90
2019-03-16T19:36:07.539Z,99.90
2019-03-16T19:38:35.579Z,99.90
2019-03-16T19:41:02.292Z,99.90
2019-03-16T19:43:28.923Z,99.90
2019-03-16T19:45:55.772Z,99.90
2019-03-16T19:48:22.924Z,99.90
2019-03-16T19:50:49.663Z,99.90
2019-03-16T19:53:16.529Z,99.90
2019-03-16T19:55:43.280Z,99.90
2019-03-16T19:58:09.874Z,99.90
2019-03-16T20:00:36.587Z,99.90
2019-03-16T20:03:03.610Z,99.90
2019-03-16T20:05:30.320Z,99.90
2019-03-16T20:07:56.940Z,99.90
2019-03-16T20:10:23.593Z,99.90
2019-03-16T20:12:53.161Z,99.90
2019-03-16T20:15:19.169Z,99.90
2019-03-16T20:17:45.881Z,99.90
2019-03-16T20:20:12.700Z,99.90
2019-03-16T20:22:39.400Z,99.90
2019-03-16T20:25:06.204Z,99.90
2019-03-16T20:27:33.327Z,99.90
2019-03-16T20:30:00.813Z,99.90
2019-03-16T20:32:27.440Z,99.90
2019-03-16T20:34:54.061Z,99.90
2019-03-16T20:37:20.716Z,99.90
2019-03-16T20:39:47.332Z,99.90
2019-03-16T20:42:13.961Z,99.90
2019-03-16T20:44:40.825Z,99.90
2019-03-16T20:47:07.480Z,99.90
2019-03-16T20:49:34.240Z,99.90
2019-03-16T20:52:01.148Z,99.90
2019-03-16T20:54:27.791Z,99.90
2019-03-16T20:56:54.798Z,99.90
2019-03-16T20:59:21.908Z,99.90
2019-03-16T21:01:48.652Z,99.90
2019-03-16T21:04:15.296Z,99.90
2019-03-16T21:06:41.994Z,99.90
2019-03-16T21:09:09.132Z,99.90
2019-03-16T21:11:35.937Z,99.90
2019-03-16T21:14:02.688Z,99.90
2019-03-16T21:16:29.399Z,99.90
2019-03-16T21:18:56.046Z,99.90
2019-03-16T21:21:22.982Z,99.90
2019-03-16T21:23:49.805Z,99.90
2019-03-16T21:26:16.498Z,99.90
2019-03-16T21:28:43.252Z,99.90
2019-03-16T21:31:09.844Z,99.90
2019-03-16T21:33:36.476Z,99.90
2019-03-16T21:36:05.150Z,99.90
2019-03-16T21:38:31.897Z,99.90
2019-03-16T21:40:58.573Z,99.90
2019-03-16T21:43:25.312Z,99.90
2019-03-16T21:45:51.909Z,99.90
2019-03-16T21:48:18.518Z,99.90
2019-03-16T21:50:45.298Z,99.90
2019-03-16T21:53:11.955Z,99.90
2019-03-16T21:55:38.571Z,99.90
2019-03-16T21:58:05.248Z,99.90
2019-03-16T22:00:31.983Z,99.90
2019-03-16T22:02:58.613Z,99.90
2019-03-16T22:05:25.232Z,99.90
2019-03-16T22:07:51.840Z,99.90
2019-03-16T22:10:18.564Z,99.90
2019-03-16T22:12:45.352Z,99.90
2019-03-16T22:15:12.178Z,99.90
2019-03-16T22:17:39.103Z,99.90
2019-03-16T22:20:07.977Z,99.90
2019-03-16T22:22:34.556Z,99.90
2019-03-16T22:25:01.307Z,99.90
2019-03-16T22:27:28.233Z,99.90
2019-03-16T22:29:55.363Z,99.90
2019-03-16T22:32:22.271Z,99.90
2019-03-16T22:34:49.070Z,99.90
2019-03-16T22:37:16.140Z,99.90
2019-03-16T22:39:43.388Z,99.90
2019-03-16T22:42:10.080Z,99.90
2019-03-16T22:44:36.825Z,99.90
2019-03-16T22:47:03.720Z,99.90
2019-03-16T22:49:30.484Z,99.90
2019-03-16T22:51:57.566Z,99.90
2019-03-16T22:54:24.274Z,99.90
2019-03-16T22:56:51.288Z,99.90
2019-03-16T22:59:18.088Z,99.90
2019-03-16T23:01:44.823Z,99.90
2019-03-16T23:04:11.504Z,99.90
2019-03-16T23:06:38.102Z,99.90
2019-03-16T23:09:06.099Z,99.90
2019-03-16T23:11:32.882Z,99.90
2019-03-16T23:13:59.499Z,99.90
2019-03-16T23:16:26.362Z,99.90
2019-03-16T23:18:53.021Z,99.90
2019-03-16T23:21:19.864Z,99.90
2019-03-16T23:23:47.338Z,99.90
2019-03-16T23:26:14.080Z,99.90
2019-03-16T23:28:41.025Z,99.90
2019-03-16T23:31:07.732Z,99.90
2019-03-16T23:33:34.436Z,99.90
2019-03-16T23:36:01.284Z,99.90
2019-03-16T23:38:27.987Z,99.90
2019-03-16T23:40:54.789Z,99.90
2019-03-16T23:43:21.550Z,99.90
2019-03-16T23:45:48.253Z,99.90
2019-03-16T23:48:14.922Z,99.90
2019-03-16T23:50:41.727Z,99.90
2019-03-16T23:53:08.406Z,99.90
2019-03-16T23:55:35.137Z,99.90
2019-03-16T23:58:01.926Z,99.90
